Time;durP1;ratioP1;P1;durP2;ratioP2;P2;SDS_P1;SDS_P2;PMS_P1;PMS_P2;Temp;Humidity;BMP_temperature;BMP_pressure;BME280_temperature;BME280_humidity;BME280_pressure;Samples;Min_cycle;Max_cycle;Signal;HPM_P1;HPM_P2
2024/01/19 00:01:49;;;;;;;10.23;4.93;;;3.50;70.40;;;;;;5076815;28;20061;-73
2024/01/19 00:04:14;;;;;;;11.33;4.33;;;3.50;70.50;;;;;;5095445;28;20567;-73
2024/01/19 00:06:40;;;;;;;10.50;4.60;;;3.50;70.40;;;;;;5090700;28;20040;-73
2024/01/19 00:09:07;;;;;;;9.60;5.17;;;3.50;70.40;;;;;;5094656;28;20032;-73
2024/01/19 00:11:33;;;;;;;9.80;4.90;;;3.50;70.40;;;;;;5094472;28;20048;-73
2024/01/19 00:13:58;;;;;;;14.63;4.97;;;3.50;70.40;;;;;;5093896;28;20516;-73
2024/01/19 00:16:24;;;;;;;9.33;4.53;;;3.50;70.50;;;;;;5094492;28;20387;-73
2024/01/19 00:18:51;;;;;;;14.60;5.33;;;3.50;70.40;;;;;;5093788;28;20089;-73
2024/01/19 00:21:16;;;;;;;9.70;5.00;;;3.40;70.40;;;;;;5093413;28;20088;-73
2024/01/19 00:23:42;;;;;;;10.87;4.97;;;3.40;70.40;;;;;;5093703;28;20020;-73
2024/01/19 00:26:08;;;;;;;11.47;5.17;;;3.50;70.40;;;;;;5078701;28;20440;-73
2024/01/19 00:28:34;;;;;;;9.83;5.10;;;3.50;70.40;;;;;;5094543;28;20085;-73
2024/01/19 00:30:59;;;;;;;8.97;4.67;;;3.50;70.40;;;;;;5093716;28;20024;-73
2024/01/19 00:33:25;;;;;;;8.80;4.40;;;3.50;70.30;;;;;;5093425;28;20016;-73
2024/01/19 00:35:51;;;;;;;10.27;4.70;;;3.50;70.30;;;;;;5093458;28;20097;-73
2024/01/19 00:38:16;;;;;;;8.93;4.70;;;3.50;70.30;;;;;;5092902;28;20472;-73
2024/01/19 00:40:43;;;;;;;8.73;4.70;;;3.50;70.20;;;;;;5094616;28;20024;-73
2024/01/19 00:43:09;;;;;;;9.27;4.30;;;3.60;70.30;;;;;;5105639;28;20020;-73
2024/01/19 00:45:36;;;;;;;9.27;4.13;;;3.50;70.20;;;;;;5088492;28;21582;-73
2024/01/19 00:48:02;;;;;;;11.70;4.53;;;3.50;70.30;;;;;;5093961;28;20059;-73
2024/01/19 00:50:29;;;;;;;10.30;4.77;;;3.50;70.30;;;;;;5093226;28;20406;-73
2024/01/19 00:52:55;;;;;;;12.20;4.20;;;3.50;70.30;;;;;;5093910;28;20047;-73
2024/01/19 00:55:20;;;;;;;9.67;4.10;;;3.50;70.30;;;;;;5092865;28;20020;-73
2024/01/19 00:57:46;;;;;;;12.07;4.53;;;3.50;70.30;;;;;;5091890;28;20407;-73
2024/01/19 01:00:12;;;;;;;12.10;4.07;;;3.60;70.40;;;;;;5093723;28;20434;-73
2024/01/19 01:02:38;;;;;;;9.40;3.87;;;3.60;70.30;;;;;;5107263;28;20020;-74
2024/01/19 01:05:04;;;;;;;8.93;3.70;;;3.60;70.30;;;;;;5091383;28;20031;-73
2024/01/19 01:07:29;;;;;;;7.60;2.90;;;3.60;70.40;;;;;;5092477;28;20028;-73
2024/01/19 01:09:55;;;;;;;6.63;2.50;;;3.70;70.50;;;;;;5093698;28;20057;-73
2024/01/19 01:12:21;;;;;;;7.80;2.60;;;3.70;70.60;;;;;;5093490;28;20039;-73
2024/01/19 01:14:47;;;;;;;6.17;2.63;;;3.70;70.60;;;;;;5093559;28;20031;-73
2024/01/19 01:17:13;;;;;;;6.00;2.53;;;3.80;70.70;;;;;;5090787;28;20444;-73
2024/01/19 01:19:39;;;;;;;8.93;3.27;;;3.80;70.80;;;;;;5093874;28;20039;-73
2024/01/19 01:22:09;;;;;;;6.03;2.47;;;3.80;70.90;;;;;;5092520;28;20074;-73
2024/01/19 01:24:35;;;;;;;6.73;2.87;;;3.80;70.90;;;;;;5092848;28;20039;-74
2024/01/19 01:27:00;;;;;;;6.20;2.40;;;3.90;71.10;;;;;;5092262;28;20032;-73
2024/01/19 01:29:26;;;;;;;8.77;3.27;;;3.90;71.10;;;;;;5092843;28;20380;-73
2024/01/19 01:31:52;;;;;;;8.00;2.57;;;3.90;71.20;;;;;;5092057;28;20031;-75
2024/01/19 01:34:18;;;;;;;6.70;2.57;;;3.90;71.30;;;;;;5093509;28;20127;-73
2024/01/19 01:36:43;;;;;;;7.47;2.40;;;3.90;71.30;;;;;;5093801;28;20035;-73
2024/01/19 01:39:11;;;;;;;5.13;2.20;;;3.90;71.40;;;;;;5093687;28;20040;-73
2024/01/19 01:41:37;;;;;;;6.30;2.43;;;3.90;71.50;;;;;;5093770;28;20032;-73
2024/01/19 01:44:04;;;;;;;6.80;2.20;;;3.90;71.60;;;;;;5092309;28;20047;-73
2024/01/19 01:46:30;;;;;;;7.93;2.63;;;3.90;71.60;;;;;;5093076;28;20424;-73
2024/01/19 01:48:56;;;;;;;5.70;2.40;;;3.90;71.60;;;;;;5095994;28;20047;-73
2024/01/19 01:51:22;;;;;;;6.00;2.20;;;3.90;71.70;;;;;;5105128;28;20020;-73
2024/01/19 01:53:48;;;;;;;4.83;1.77;;;3.90;71.70;;;;;;5093072;28;20032;-73
2024/01/19 01:56:14;;;;;;;3.60;1.90;;;3.90;71.80;;;;;;5094860;28;20030;-73
2024/01/19 01:58:40;;;;;;;6.20;2.13;;;3.90;71.80;;;;;;5093205;28;20112;-73
2024/01/19 02:01:06;;;;;;;7.17;1.83;;;3.90;71.90;;;;;;5092687;28;20059;-73
2024/01/19 02:03:33;;;;;;;3.93;1.63;;;3.90;71.90;;;;;;5093329;28;20081;-73
2024/01/19 02:05:59;;;;;;;4.47;1.87;;;3.90;72.00;;;;;;5079246;28;20039;-73
2024/01/19 02:08:25;;;;;;;5.10;1.80;;;3.80;71.90;;;;;;5090415;28;20024;-73
2024/01/19 02:10:51;;;;;;;4.07;1.70;;;3.90;72.00;;;;;;5092543;28;20043;-73
2024/01/19 02:13:17;;;;;;;6.23;1.87;;;3.90;72.10;;;;;;5076456;28;20027;-73
2024/01/19 02:15:42;;;;;;;3.10;1.40;;;3.80;72.00;;;;;;5099708;28;20107;-73
2024/01/19 02:18:08;;;;;;;4.27;1.70;;;3.80;72.10;;;;;;5089563;28;20381;-73
2024/01/19 02:20:34;;;;;;;3.00;1.83;;;3.80;72.20;;;;;;5091895;28;20519;-73
2024/01/19 02:23:02;;;;;;;4.30;1.57;;;3.80;72.30;;;;;;5092743;28;20020;-73
2024/01/19 02:25:28;;;;;;;4.33;1.73;;;3.80;72.30;;;;;;5093989;28;20028;-73
2024/01/19 02:27:55;;;;;;;3.80;1.67;;;3.80;72.30;;;;;;5094304;28;20104;-73
2024/01/19 02:30:21;;;;;;;3.57;1.43;;;3.80;72.30;;;;;;5096741;28;20062;-73
2024/01/19 02:32:47;;;;;;;5.47;1.70;;;3.80;72.40;;;;;;5096278;28;20177;-73
2024/01/19 02:35:12;;;;;;;4.67;1.77;;;3.80;72.40;;;;;;5096684;28;20070;-73
2024/01/19 02:37:38;;;;;;;3.37;1.50;;;3.80;72.40;;;;;;5097589;28;20048;-73
2024/01/19 02:40:05;;;;;;;3.83;1.87;;;3.80;72.50;;;;;;5096577;28;20040;-73
2024/01/19 02:42:31;;;;;;;7.63;2.23;;;3.80;72.50;;;;;;5097032;28;20024;-73
2024/01/19 02:44:59;;;;;;;3.67;1.80;;;3.70;72.50;;;;;;5096583;28;20076;-73
2024/01/19 02:47:27;;;;;;;3.23;1.40;;;3.70;73.20;;;;;;5097731;28;20031;-73
2024/01/19 02:49:53;;;;;;;4.10;1.53;;;3.70;72.50;;;;;;5096317;28;20038;-73
2024/01/19 02:52:19;;;;;;;4.33;1.47;;;3.70;72.50;;;;;;5095458;28;20028;-73
2024/01/19 02:54:45;;;;;;;3.67;1.50;;;3.70;72.60;;;;;;5089211;28;20036;-72
2024/01/19 02:57:10;;;;;;;3.80;1.60;;;3.70;72.60;;;;;;5096407;28;20079;-72
2024/01/19 02:59:36;;;;;;;3.10;1.50;;;3.70;72.60;;;;;;5097052;28;20631;-72
2024/01/19 03:02:02;;;;;;;4.53;1.47;;;3.70;72.70;;;;;;5095992;28;20407;-72
2024/01/19 03:04:28;;;;;;;3.53;1.50;;;3.70;72.70;;;;;;5093236;28;20379;-72
2024/01/19 03:06:55;;;;;;;4.43;1.50;;;3.70;72.80;;;;;;5093580;28;20027;-72
2024/01/19 03:09:21;;;;;;;4.93;2.00;;;3.60;72.80;;;;;;5096773;28;20055;-72
2024/01/19 03:11:46;;;;;;;7.20;2.10;;;3.60;72.90;;;;;;5095856;28;20076;-72
2024/01/19 03:14:12;;;;;;;8.27;2.20;;;3.60;72.90;;;;;;5093667;28;20027;-72
2024/01/19 03:16:44;;;;;;;3.70;1.87;;;3.60;72.90;;;;;;5096473;28;20081;-72
2024/01/19 03:19:10;;;;;;;5.60;1.83;;;3.60;72.90;;;;;;5095759;28;20024;-73
2024/01/19 03:21:36;;;;;;;4.83;2.07;;;3.60;72.90;;;;;;5096460;28;20081;-73
2024/01/19 03:24:02;;;;;;;5.60;2.27;;;3.60;72.90;;;;;;5094850;28;20024;-73
2024/01/19 03:26:28;;;;;;;7.20;2.27;;;3.60;72.90;;;;;;5099802;28;20115;-72
2024/01/19 03:28:54;;;;;;;6.30;2.27;;;3.60;72.90;;;;;;5096525;28;20028;-73
2024/01/19 03:31:19;;;;;;;7.30;2.43;;;3.60;72.90;;;;;;5096702;28;20129;-72
2024/01/19 03:33:45;;;;;;;5.43;2.80;;;3.50;72.90;;;;;;5096526;28;20051;-72
2024/01/19 03:36:11;;;;;;;5.67;2.50;;;3.50;72.90;;;;;;5094565;28;20078;-72
2024/01/19 03:38:37;;;;;;;5.87;2.67;;;3.50;72.90;;;;;;5096155;28;20052;-73
2024/01/19 03:41:02;;;;;;;9.50;3.03;;;3.50;72.90;;;;;;5093935;28;20089;-73
2024/01/19 03:43:28;;;;;;;7.10;3.00;;;3.50;72.90;;;;;;5087486;28;20028;-72
2024/01/19 03:45:54;;;;;;;8.97;3.30;;;3.50;72.90;;;;;;5101307;28;20020;-73
2024/01/19 03:48:20;;;;;;;8.30;3.20;;;3.50;72.90;;;;;;5094943;28;20035;-73
2024/01/19 03:50:45;;;;;;;8.40;3.97;;;3.50;72.90;;;;;;5095017;28;20044;-72
2024/01/19 03:53:11;;;;;;;7.30;3.30;;;3.40;72.80;;;;;;5095129;28;20114;-72
2024/01/19 03:55:37;;;;;;;7.33;3.50;;;3.50;72.90;;;;;;5094463;28;20158;-72
2024/01/19 03:58:03;;;;;;;7.17;3.53;;;3.40;72.80;;;;;;5095044;28;20059;-73
2024/01/19 04:00:28;;;;;;;8.07;3.80;;;3.40;72.80;;;;;;5086998;28;20119;-72
2024/01/19 04:02:54;;;;;;;9.20;4.17;;;3.40;72.80;;;;;;5091040;28;20029;-72
2024/01/19 04:05:20;;;;;;;7.47;3.67;;;3.40;72.80;;;;;;5095947;28;20034;-72
2024/01/19 04:07:46;;;;;;;8.23;4.20;;;3.40;72.80;;;;;;5093625;28;20460;-72
2024/01/19 04:10:12;;;;;;;7.20;4.23;;;3.40;72.80;;;;;;5095382;28;20027;-72
2024/01/19 04:12:37;;;;;;;8.13;4.07;;;3.40;72.80;;;;;;5094685;28;20028;-72
2024/01/19 04:15:04;;;;;;;8.23;4.30;;;3.40;72.80;;;;;;5094609;28;20028;-72
2024/01/19 04:17:29;;;;;;;8.43;4.63;;;3.40;72.80;;;;;;5091227;28;20039;-72
2024/01/19 04:19:56;;;;;;;9.07;4.87;;;3.40;72.80;;;;;;5095641;28;20024;-73
2024/01/19 04:22:22;;;;;;;8.30;3.70;;;3.40;72.80;;;;;;5099443;28;20051;-72
2024/01/19 04:24:47;;;;;;;7.33;4.07;;;3.40;72.80;;;;;;5095821;28;20032;-73
2024/01/19 04:27:13;;;;;;;8.63;4.53;;;3.30;72.70;;;;;;5093928;28;20028;-73
2024/01/19 04:29:39;;;;;;;10.03;4.73;;;3.30;72.70;;;;;;5094501;28;20044;-73
2024/01/19 04:32:05;;;;;;;8.17;4.77;;;3.30;72.70;;;;;;5095275;28;20032;-73
2024/01/19 04:34:31;;;;;;;8.80;4.20;;;3.30;72.70;;;;;;5095349;28;20028;-72
2024/01/19 04:36:56;;;;;;;7.60;4.17;;;3.40;72.80;;;;;;5094760;28;20032;-72
2024/01/19 04:39:22;;;;;;;8.77;4.23;;;3.40;72.80;;;;;;5108754;28;20369;-72
2024/01/19 04:41:48;;;;;;;9.43;4.03;;;3.40;72.80;;;;;;5094230;28;20306;-72
2024/01/19 04:44:14;;;;;;;8.37;4.50;;;3.30;72.70;;;;;;5094857;28;20028;-72
2024/01/19 04:46:39;;;;;;;7.57;4.13;;;3.30;72.70;;;;;;5091644;28;20031;-72
2024/01/19 04:49:05;;;;;;;10.40;4.73;;;3.40;72.70;;;;;;5101174;28;20028;-72
2024/01/19 04:51:31;;;;;;;8.10;3.87;;;3.30;72.70;;;;;;5089755;28;20036;-72
2024/01/19 04:53:59;;;;;;;9.13;3.80;;;3.30;72.70;;;;;;5091068;28;20028;-72
2024/01/19 04:56:25;;;;;;;8.17;3.90;;;3.30;72.70;;;;;;5090436;28;20039;-72
2024/01/19 04:58:50;;;;;;;8.97;4.03;;;3.30;72.70;;;;;;5092276;28;20024;-72
2024/01/19 05:01:17;;;;;;;8.63;3.80;;;3.30;72.80;;;;;;5093432;28;20036;-72
2024/01/19 05:03:44;;;;;;;7.93;3.83;;;3.30;72.80;;;;;;5094328;28;20036;-72
2024/01/19 05:06:13;;;;;;;7.17;3.67;;;3.30;72.80;;;;;;5094125;28;20059;-72
2024/01/19 05:08:38;;;;;;;8.47;4.30;;;3.30;72.80;;;;;;5093624;28;20084;-72
2024/01/19 05:11:04;;;;;;;7.13;3.67;;;3.30;72.80;;;;;;5093442;28;20102;-73
2024/01/19 05:13:30;;;;;;;9.00;3.70;;;3.30;72.80;;;;;;5093637;28;20460;-72
2024/01/19 05:15:56;;;;;;;10.33;4.47;;;3.30;72.80;;;;;;5094802;28;20032;-72
2024/01/19 05:18:21;;;;;;;7.30;4.17;;;3.30;72.80;;;;;;5093742;28;20448;-72
2024/01/19 05:20:47;;;;;;;6.97;3.57;;;3.30;72.80;;;;;;5092251;28;20051;-72
2024/01/19 05:23:13;;;;;;;8.27;3.43;;;3.30;72.80;;;;;;5094160;28;20085;-72
2024/01/19 05:25:38;;;;;;;8.10;3.47;;;3.40;72.80;;;;;;5092887;28;20361;-73
2024/01/19 05:28:04;;;;;;;7.83;3.97;;;3.40;72.80;;;;;;5109617;28;20115;-74
2024/01/19 05:30:30;;;;;;;7.83;3.97;;;3.40;72.80;;;;;;5092785;28;20150;-73
2024/01/19 05:32:56;;;;;;;8.57;3.80;;;3.40;72.80;;;;;;5093850;28;20039;-73
2024/01/19 05:35:22;;;;;;;8.87;3.63;;;3.40;72.80;;;;;;5092629;28;20016;-73
2024/01/19 05:37:47;;;;;;;8.37;3.30;;;3.40;72.80;;;;;;5093644;28;20381;-72
2024/01/19 05:40:13;;;;;;;8.87;3.67;;;3.40;72.80;;;;;;5093227;28;20048;-72
2024/01/19 05:42:39;;;;;;;7.40;3.17;;;3.40;72.80;;;;;;5093788;28;20118;-70
2024/01/19 05:45:06;;;;;;;8.10;3.53;;;3.40;72.80;;;;;;5094102;28;20024;-72
2024/01/19 05:47:31;;;;;;;12.77;4.03;;;3.50;72.90;;;;;;5093356;28;20043;-71
2024/01/19 05:49:57;;;;;;;6.20;3.40;;;3.40;72.90;;;;;;5093943;28;20024;-71
2024/01/19 05:52:23;;;;;;;10.27;3.73;;;3.50;73.00;;;;;;5085424;28;20134;-71
2024/01/19 05:54:50;;;;;;;9.90;3.20;;;3.50;73.00;;;;;;5095120;28;20110;-72
2024/01/19 05:57:16;;;;;;;9.10;3.70;;;3.50;73.00;;;;;;5097883;28;20100;-73
2024/01/19 05:59:42;;;;;;;8.77;3.83;;;3.50;73.00;;;;;;5092908;28;20048;-72
2024/01/19 06:02:07;;;;;;;10.30;3.83;;;3.50;73.10;;;;;;5072383;28;20020;-72
2024/01/19 06:04:34;;;;;;;7.17;3.10;;;3.40;73.10;;;;;;5092873;28;20042;-71
2024/01/19 06:07:03;;;;;;;8.40;3.30;;;3.40;73.10;;;;;;5096713;28;20031;-72
2024/01/19 06:09:29;;;;;;;6.87;3.17;;;3.40;73.30;;;;;;5098616;28;20032;-73
2024/01/19 06:11:55;;;;;;;8.17;3.80;;;3.40;73.30;;;;;;5097655;28;20031;-74
2024/01/19 06:14:20;;;;;;;7.90;3.50;;;3.30;73.30;;;;;;5114542;28;20038;-68
2024/01/19 06:16:46;;;;;;;7.97;3.47;;;3.30;73.40;;;;;;5098485;28;20081;-70
2024/01/19 06:19:12;;;;;;;7.37;3.27;;;3.30;73.40;;;;;;5098875;28;20073;-70
2024/01/19 06:21:42;;;;;;;7.43;3.50;;;3.30;73.50;;;;;;5097857;28;20028;-72
2024/01/19 06:24:08;;;;;;;9.57;3.30;;;3.30;73.50;;;;;;5097543;28;20020;-72
2024/01/19 06:26:33;;;;;;;7.80;3.50;;;3.20;73.50;;;;;;5083260;28;20475;-72
2024/01/19 06:28:59;;;;;;;6.00;3.33;;;3.20;73.50;;;;;;5097170;28;20024;-70
2024/01/19 06:31:25;;;;;;;10.17;3.83;;;3.30;73.50;;;;;;5097288;28;20046;-71
2024/01/19 06:33:51;;;;;;;8.03;4.00;;;3.30;73.50;;;;;;5097422;28;20550;-71
2024/01/19 06:36:17;;;;;;;7.73;3.27;;;3.30;73.50;;;;;;5100781;28;20069;-71
2024/01/19 06:38:43;;;;;;;8.37;4.37;;;3.30;73.60;;;;;;5083666;28;20109;-70
2024/01/19 06:41:08;;;;;;;8.73;4.00;;;3.30;73.60;;;;;;5097796;28;20110;-70
2024/01/19 06:43:34;;;;;;;8.83;3.47;;;3.30;73.60;;;;;;5096814;28;20059;-72
2024/01/19 06:46:00;;;;;;;7.83;3.70;;;3.30;73.70;;;;;;5083252;28;20329;-72
2024/01/19 06:48:25;;;;;;;8.93;4.20;;;3.30;73.80;;;;;;5106312;28;20039;-74
2024/01/19 06:50:51;;;;;;;11.03;4.27;;;3.30;73.90;;;;;;5096062;28;20027;-74
2024/01/19 06:53:17;;;;;;;8.43;3.93;;;3.30;74.00;;;;;;5100352;28;20184;-68
2024/01/19 06:55:43;;;;;;;10.50;4.73;;;3.40;74.00;;;;;;5097868;28;20355;-68
2024/01/19 06:58:08;;;;;;;8.80;3.80;;;3.30;74.00;;;;;;5095285;28;20444;-71
2024/01/19 07:00:34;;;;;;;7.23;3.70;;;3.40;74.20;;;;;;5097942;28;20062;-71
2024/01/19 07:03:00;;;;;;;6.33;3.13;;;3.40;74.20;;;;;;5097631;28;20062;-69
2024/01/19 07:05:26;;;;;;;8.60;3.70;;;3.40;74.20;;;;;;5096741;28;20119;-71
2024/01/19 07:07:52;;;;;;;7.80;3.63;;;3.40;74.20;;;;;;5097378;28;20081;-69
2024/01/19 07:10:19;;;;;;;8.03;4.10;;;3.40;74.30;;;;;;5097172;28;20020;-69
2024/01/19 07:12:45;;;;;;;8.40;4.03;;;3.40;74.30;;;;;;5097519;28;20449;-70
2024/01/19 07:15:11;;;;;;;9.30;4.73;;;3.40;74.30;;;;;;5097930;28;20104;-70
2024/01/19 07:17:36;;;;;;;10.43;5.10;;;3.40;74.40;;;;;;5097286;28;20036;-70
2024/01/19 07:20:05;;;;;;;10.00;4.53;;;3.40;74.40;;;;;;5094917;28;20036;-69
2024/01/19 07:22:31;;;;;;;10.77;5.33;;;3.40;74.50;;;;;;5095988;28;20054;-69
2024/01/19 07:24:56;;;;;;;9.60;5.33;;;3.40;74.60;;;;;;5078462;28;20062;-70
2024/01/19 07:27:22;;;;;;;11.50;5.93;;;3.40;74.70;;;;;;5097086;28;20464;-70
2024/01/19 07:29:48;;;;;;;9.83;5.80;;;3.40;74.70;;;;;;5078459;28;20110;-70
2024/01/19 07:32:14;;;;;;;9.27;5.47;;;3.40;74.70;;;;;;5095633;28;20043;-69
2024/01/19 07:34:39;;;;;;;10.73;5.87;;;3.40;74.70;;;;;;5097314;28;20031;-69
2024/01/19 07:37:06;;;;;;;10.57;5.73;;;3.40;74.70;;;;;;5095983;28;20395;-70
2024/01/19 07:39:32;;;;;;;11.93;6.80;;;3.40;74.70;;;;;;5094475;28;20054;-69
2024/01/19 07:41:58;;;;;;;13.50;6.83;;;3.50;74.80;;;;;;5093864;28;20158;-70
2024/01/19 07:44:24;;;;;;;12.60;7.47;;;3.50;74.80;;;;;;5090444;28;20017;-75
2024/01/19 07:46:50;;;;;;;12.00;6.80;;;3.50;74.90;;;;;;5093347;28;20111;-72
2024/01/19 07:49:21;;;;;;;11.43;6.53;;;3.40;74.80;;;;;;5095113;28;20047;-69
2024/01/19 07:51:49;;;;;;;10.43;6.45;;;3.50;74.80;;;;;;5090486;28;20046;-68
2024/01/19 07:54:17;;;;;;;10.93;6.23;;;3.40;74.80;;;;;;5094396;28;20042;-69
2024/01/19 07:56:43;;;;;;;14.57;6.67;;;3.40;74.80;;;;;;5095852;28;20039;-69
2024/01/19 07:59:09;;;;;;;11.47;6.87;;;3.40;74.90;;;;;;5082868;28;20032;-69
2024/01/19 08:01:35;;;;;;;14.17;6.60;;;3.40;74.90;;;;;;5094593;28;20040;-68
2024/01/19 08:04:01;;;;;;;13.47;6.30;;;3.40;74.90;;;;;;5092093;28;20020;-68
2024/01/19 08:06:26;;;;;;;11.80;6.47;;;3.40;74.90;;;;;;5094801;28;20028;-68
2024/01/19 08:08:52;;;;;;;10.60;6.00;;;3.40;74.90;;;;;;5095440;28;20028;-68
2024/01/19 08:11:18;;;;;;;10.10;5.77;;;3.40;74.90;;;;;;5077352;28;20032;-70
2024/01/19 08:13:44;;;;;;;10.23;6.23;;;3.40;74.90;;;;;;5094217;28;20024;-67
2024/01/19 08:16:09;;;;;;;10.63;5.87;;;3.40;74.80;;;;;;5094311;28;20024;-69
2024/01/19 08:18:35;;;;;;;11.50;5.93;;;3.40;74.80;;;;;;5093754;28;20031;-69
2024/01/19 08:21:01;;;;;;;9.07;5.30;;;3.40;74.70;;;;;;5095348;28;20020;-68
2024/01/19 08:23:27;;;;;;;10.93;5.77;;;3.40;74.70;;;;;;5094773;28;20036;-68
2024/01/19 08:25:53;;;;;;;11.17;5.47;;;3.50;74.70;;;;;;5093056;28;20453;-71
2024/01/19 08:28:19;;;;;;;12.53;6.00;;;3.50;74.60;;;;;;5094748;28;20024;-72
2024/01/19 08:30:44;;;;;;;10.60;5.97;;;3.50;74.60;;;;;;5093221;28;20035;-71
2024/01/19 08:33:11;;;;;;;11.27;5.83;;;3.50;74.60;;;;;;5077781;28;20360;-73
2024/01/19 08:35:37;;;;;;;11.47;5.73;;;3.50;74.60;;;;;;5095142;28;20040;-71
2024/01/19 08:38:03;;;;;;;13.97;6.73;;;3.50;74.50;;;;;;5094160;28;20063;-71
2024/01/19 08:40:29;;;;;;;10.57;6.20;;;3.50;74.50;;;;;;5092338;28;20024;-71
2024/01/19 08:42:55;;;;;;;12.67;5.90;;;3.50;74.60;;;;;;5077072;28;20464;-71
2024/01/19 08:45:20;;;;;;;11.50;6.83;;;3.50;75.30;;;;;;5094618;28;20044;-71
2024/01/19 08:47:48;;;;;;;12.73;6.87;;;3.50;75.30;;;;;;5076468;28;20096;-71
2024/01/19 08:50:14;;;;;;;12.53;6.10;;;3.50;74.60;;;;;;5094122;28;20028;-72
2024/01/19 08:52:40;;;;;;;14.40;6.83;;;3.50;74.70;;;;;;5093574;28;20408;-71
2024/01/19 08:55:06;;;;;;;13.70;6.63;;;3.50;74.60;;;;;;5091316;28;20428;-71
2024/01/19 08:57:32;;;;;;;14.33;7.10;;;3.60;74.60;;;;;;5095303;28;20077;-70
2024/01/19 08:59:58;;;;;;;10.63;5.83;;;3.50;74.50;;;;;;5094468;28;20102;-71
2024/01/19 09:02:23;;;;;;;11.03;6.63;;;3.60;74.60;;;;;;5092328;28;20033;-71
2024/01/19 09:04:50;;;;;;;14.43;6.93;;;3.60;74.70;;;;;;5094683;28;20071;-71
2024/01/19 09:07:16;;;;;;;12.73;6.93;;;3.60;74.60;;;;;;5093536;28;20361;-73
2024/01/19 09:09:41;;;;;;;11.27;6.57;;;3.60;74.60;;;;;;5093345;28;20016;-73
2024/01/19 09:12:07;;;;;;;14.63;7.67;;;3.70;74.60;;;;;;5092925;28;20035;-71
2024/01/19 09:14:34;;;;;;;13.70;7.53;;;3.70;74.60;;;;;;5073350;28;20393;-70
2024/01/19 09:17:00;;;;;;;12.70;7.23;;;3.70;74.50;;;;;;5093885;28;20027;-70
2024/01/19 09:19:26;;;;;;;13.73;7.87;;;3.70;74.50;;;;;;5093569;28;20356;-70
2024/01/19 09:21:51;;;;;;;17.43;7.50;;;3.70;74.50;;;;;;5076243;28;20043;-70
2024/01/19 09:24:17;;;;;;;12.23;7.13;;;3.70;74.50;;;;;;5093859;28;20099;-70
2024/01/19 09:26:43;;;;;;;11.93;7.20;;;3.70;74.50;;;;;;5091256;28;20054;-69
2024/01/19 09:29:10;;;;;;;14.60;8.80;;;3.70;74.60;;;;;;5097135;28;20039;-70
2024/01/19 09:31:46;;;;;;;16.43;8.10;;;3.70;74.60;;;;;;5091085;28;20093;-69
2024/01/19 09:34:12;;;;;;;16.67;8.70;;;3.70;74.70;;;;;;5091572;28;20027;-69
2024/01/19 09:36:39;;;;;;;15.63;8.13;;;3.70;74.80;;;;;;5093520;28;21528;-71
2024/01/19 09:39:06;;;;;;;13.93;7.83;;;3.70;74.70;;;;;;5092518;28;20039;-70
2024/01/19 09:41:38;;;;;;;15.37;9.03;;;3.70;74.70;;;;;;5088330;28;20081;-70
2024/01/19 09:44:09;;;;;;;16.23;9.03;;;3.70;74.70;;;;;;5093880;28;20036;-68
2024/01/19 09:46:48;;;;;;;15.67;7.73;;;3.70;74.70;;;;;;5092549;28;20107;-69
2024/01/19 09:49:51;;;;;;;14.77;8.77;;;3.70;74.70;;;;;;5091556;28;20371;-69
2024/01/19 09:52:42;;;;;;;13.00;7.73;;;3.70;74.60;;;;;;5083553;28;20036;-69
2024/01/19 09:55:11;;;;;;;17.38;8.55;;;3.80;74.60;;;;;;5092443;28;20032;-69
2024/01/19 09:57:44;;;;;;;14.13;8.93;;;3.70;74.70;;;;;;5074498;28;20265;-68
2024/01/19 10:00:12;;;;;;;16.73;9.47;;;3.80;74.80;;;;;;5091657;28;20044;-69
2024/01/19 10:02:43;;;;;;;18.80;11.37;;;3.80;74.80;;;;;;5090177;28;20119;-69
2024/01/19 10:05:12;;;;;;;16.77;10.27;;;3.90;74.80;;;;;;5095367;28;20024;-68
2024/01/19 10:07:43;;;;;;;19.73;9.73;;;3.90;74.80;;;;;;5090573;28;20055;-69
2024/01/19 10:10:10;;;;;;;17.98;9.90;;;3.90;74.90;;;;;;5075765;28;20024;-70
2024/01/19 10:12:37;;;;;;;17.57;9.40;;;3.90;74.80;;;;;;5104808;28;20113;-70
2024/01/19 10:15:06;;;;;;;17.77;9.63;;;3.90;74.80;;;;;;5092693;28;20113;-70
2024/01/19 10:17:33;;;;;;;14.37;8.77;;;4.00;74.80;;;;;;5090373;28;20043;-69
2024/01/19 10:20:00;;;;;;;16.50;9.40;;;4.00;74.70;;;;;;5091963;28;20042;-69
2024/01/19 10:22:29;;;;;;;13.27;8.53;;;4.10;74.60;;;;;;5092651;28;20024;-69
2024/01/19 10:25:14;;;;;;;15.30;9.57;;;4.10;74.60;;;;;;5075131;28;20337;-70
2024/01/19 10:27:41;;;;;;;13.83;7.70;;;4.10;74.50;;;;;;5092446;28;20025;-70
2024/01/19 10:30:09;;;;;;;15.90;9.53;;;4.10;74.50;;;;;;5092960;28;20443;-71
2024/01/19 10:32:37;;;;;;;12.87;8.53;;;4.20;74.60;;;;;;5090292;28;20027;-71
2024/01/19 10:35:09;;;;;;;13.87;7.97;;;4.30;74.50;;;;;;5092377;28;20020;-70
2024/01/19 10:37:34;;;;;;;14.10;8.02;;;4.40;74.40;;;;;;5092583;28;20043;-69
2024/01/19 10:40:23;;;;;;;13.90;8.40;;;4.50;74.40;;;;;;5091878;28;20099;-71
2024/01/19 10:42:53;;;;;;;14.00;7.37;;;4.60;74.10;;;;;;5090442;28;20380;-70
2024/01/19 10:45:23;;;;;;;13.10;7.63;;;4.70;73.80;;;;;;5092692;28;20017;-71
2024/01/19 10:47:53;;;;;;;13.47;7.70;;;4.90;73.60;;;;;;5093193;28;20399;-70
2024/01/19 10:50:20;;;;;;;12.07;7.90;;;5.10;73.30;;;;;;5093897;28;20016;-70
2024/01/19 10:52:48;;;;;;;11.17;8.47;;;5.30;72.90;;;;;;5094342;28;20385;-72
2024/01/19 10:55:31;;;;;;;13.40;7.77;;;5.50;72.60;;;;;;5096400;28;20452;-72
2024/01/19 10:58:03;;;;;;;11.30;6.73;;;5.70;72.20;;;;;;5095909;28;20113;-71
2024/01/19 11:00:29;;;;;;;13.47;6.97;;;5.80;72.00;;;;;;5096424;28;20032;-71
2024/01/19 11:02:57;;;;;;;10.43;6.30;;;5.90;71.70;;;;;;5096625;28;20096;-70
2024/01/19 11:05:24;;;;;;;12.07;6.70;;;6.10;71.50;;;;;;5097154;28;20360;-68
2024/01/19 11:07:55;;;;;;;12.80;6.67;;;6.20;71.30;;;;;;5102897;28;20016;-70
2024/01/19 11:10:22;;;;;;;12.60;6.10;;;6.30;71.10;;;;;;5094547;28;20039;-71
2024/01/19 11:13:08;;;;;;;10.80;6.30;;;6.40;70.90;;;;;;5096212;28;20085;-71
2024/01/19 11:15:46;;;;;;;10.20;5.67;;;6.40;70.70;;;;;;5095333;28;20024;-71
2024/01/19 11:18:11;;;;;;;12.40;5.57;;;6.50;70.70;;;;;;5097551;28;20020;-70
2024/01/19 11:20:38;;;;;;;9.87;6.07;;;6.50;70.50;;;;;;5094450;28;20322;-71
2024/01/19 11:23:05;;;;;;;14.53;5.77;;;6.60;70.40;;;;;;5108206;28;20070;-71
2024/01/19 11:25:51;;;;;;;12.47;5.67;;;6.60;70.20;;;;;;5098807;28;20028;-71
2024/01/19 11:28:28;;;;;;;12.27;6.27;;;6.60;70.20;;;;;;5091871;28;20016;-71
2024/01/19 11:31:16;;;;;;;11.90;6.23;;;6.60;70.10;;;;;;5095291;28;20419;-71
2024/01/19 11:33:42;;;;;;;11.47;5.53;;;6.60;70.10;;;;;;5093893;28;20016;-71
2024/01/19 11:36:09;;;;;;;10.63;5.63;;;6.50;70.10;;;;;;5095750;28;20024;-71
2024/01/19 11:38:42;;;;;;;11.10;5.30;;;6.60;70.30;;;;;;5096421;28;20070;-71
2024/01/19 11:41:10;;;;;;;12.63;5.20;;;6.50;70.20;;;;;;5095657;28;20032;-71
2024/01/19 11:43:43;;;;;;;10.27;5.80;;;6.50;70.30;;;;;;5094793;28;20065;-71
2024/01/19 11:46:10;;;;;;;10.27;4.93;;;6.50;70.30;;;;;;5097074;28;20391;-71
2024/01/19 11:48:43;;;;;;;12.80;5.37;;;6.50;70.30;;;;;;5096768;28;20028;-70
2024/01/19 11:51:31;;;;;;;12.63;5.20;;;6.50;70.30;;;;;;5093345;28;20028;-73
2024/01/19 11:54:01;;;;;;;9.90;4.87;;;6.50;70.40;;;;;;5101590;28;20514;-71
2024/01/19 11:56:28;;;;;;;10.60;5.10;;;6.40;70.40;;;;;;5092072;28;20032;-71
2024/01/19 11:58:54;;;;;;;10.90;4.73;;;6.40;70.40;;;;;;5093161;28;20031;-73
2024/01/19 12:01:21;;;;;;;8.57;4.40;;;6.50;70.50;;;;;;5094100;28;20074;-72
2024/01/19 12:03:54;;;;;;;9.70;4.10;;;6.40;70.40;;;;;;5093864;28;20023;-73
2024/01/19 12:06:21;;;;;;;9.30;4.70;;;6.40;70.50;;;;;;5095039;28;20024;-72
2024/01/19 12:09:05;;;;;;;8.47;4.40;;;6.40;70.60;;;;;;5095006;28;20449;-72
2024/01/19 12:11:32;;;;;;;7.20;3.87;;;6.40;70.60;;;;;;5098743;28;20402;-73
2024/01/19 12:14:03;;;;;;;9.10;4.27;;;6.40;70.60;;;;;;5077601;28;20448;-72
2024/01/19 12:16:29;;;;;;;8.20;3.97;;;6.40;70.60;;;;;;5094866;28;20028;-72
2024/01/19 12:18:55;;;;;;;7.97;4.13;;;6.40;70.70;;;;;;5096131;28;20024;-72
2024/01/19 12:21:22;;;;;;;9.73;4.00;;;6.40;70.70;;;;;;5096268;28;20035;-72
2024/01/19 12:23:53;;;;;;;9.33;4.27;;;6.40;70.70;;;;;;5093188;28;20103;-72
2024/01/19 12:26:22;;;;;;;8.87;4.30;;;6.40;70.70;;;;;;5103849;28;20106;-72
2024/01/19 12:28:52;;;;;;;10.10;3.70;;;6.40;70.70;;;;;;5096443;28;20020;-72
2024/01/19 12:31:33;;;;;;;8.47;3.73;;;6.40;70.70;;;;;;5095458;28;20020;-72
2024/01/19 12:34:10;;;;;;;8.27;3.97;;;6.40;70.70;;;;;;5095840;28;20107;-72
2024/01/19 12:36:36;;;;;;;11.67;4.30;;;6.30;70.60;;;;;;5093542;28;20333;-72
2024/01/19 12:39:05;;;;;;;9.60;4.30;;;6.40;70.60;;;;;;5093846;28;20043;-71
2024/01/19 12:41:32;;;;;;;8.33;4.07;;;6.40;70.60;;;;;;5094107;28;20428;-72
2024/01/19 12:43:59;;;;;;;8.03;3.73;;;6.40;70.50;;;;;;5094324;28;20050;-72
2024/01/19 12:46:25;;;;;;;15.17;4.57;;;6.40;70.50;;;;;;5093673;28;20080;-72
2024/01/19 12:49:02;;;;;;;6.87;2.97;;;6.40;70.50;;;;;;5096606;28;20158;-72
2024/01/19 12:51:28;;;;;;;8.07;3.83;;;6.40;70.50;;;;;;5085652;28;20073;-72
2024/01/19 12:53:55;;;;;;;9.13;4.17;;;6.40;70.40;;;;;;5081451;28;20023;-72